Latest Weather Observations for North Head

IDN60801

Issued at 11:02 am EDT Thursday 23 February 2017 (issued every 30 minutes, with the page automatically refreshed every 10 minutes)

About weather observations | Map of weather stations | Latest weather observations for NSW | Other Formats
Station Details ID: 066197 Name: NORTH HEAD Lat: -33.82 Lon: 151.30 Height: 90.0 m
Data from the previous 72 hours. | See also: Recent months for locations in New South Wales
Date/Time
EDT
Temp
°C
App
Temp
°C
Dew
Point
°C
Rel
Hum
%
Delta-T
°C
Wind Press
QNH
hPa
Press
MSL
hPa
Rain since
9am
mm
Dir  Spd
km/h
Gust
km/h
Spd
kts
Gust
kts
23/11:00am - - - - - NE 20 30 11 16 - - -
23/10:30am - - - - - NNE 19 26 10 14 - - -
23/10:00am - - - - - NNE 17 26 9 14 - - -
23/09:30am - - - - - N 19 28 10 15 - - -
23/09:00am - - - - - N 17 22 9 12 - - -
23/08:30am - - - - - N 15 24 8 13 - - -
23/08:00am - - - - - N 15 24 8 13 - - -
23/07:30am - - - - - N 13 20 7 11 - - -
23/07:00am - - - - - N 15 20 8 11 - - -
23/06:30am - - - - - N 15 22 8 12 - - -
23/06:00am - - - - - N 15 24 8 13 - - -
23/05:30am - - - - - N 15 20 8 11 - - -
23/05:00am - - - - - N 17 22 9 12 - - -
23/04:30am - - - - - N 17 22 9 12 - - -
23/04:00am - - - - - N 17 26 9 14 - - -
23/03:30am - - - - - N 17 24 9 13 - - -
23/03:00am - - - - - N 19 28 10 15 - - -
23/02:30am - - - - - N 19 26 10 14 - - -
23/02:00am - - - - - N 17 26 9 14 - - -
23/01:30am - - - - - NNE 17 30 9 16 - - -
23/01:00am - - - - - NNE 19 28 10 15 - - -
23/12:30am - - - - - NNE 20 30 11 16 - - -
23/12:00am - - - - - NNE 20 33 11 18 - - -
 
Date/Time
EDT
Temp
°C
App
Temp
°C
Dew
Point
°C
Rel
Hum
%
Delta-T
°C
Wind Press
QNH
hPa
Press
MSL
hPa
Rain since
9am
mm
Dir  Spd
km/h
Gust
km/h
Spd
kts
Gust
kts
22/11:30pm - - - - - NNE 24 35 13 19 - - -
22/11:00pm - - - - - NNE 24 39 13 21 - - -
22/10:30pm - - - - - NNE 24 37 13 20 - - -
22/10:00pm - - - - - NNE 24 37 13 20 - - -
22/09:30pm - - - - - NNE 24 37 13 20 - - -
22/09:00pm - - - - - NNE 26 37 14 20 - - -
22/08:30pm - - - - - NNE 22 35 12 19 - - -
22/08:00pm - - - - - NNE 22 35 12 19 - - -
22/07:30pm - - - - - NNE 22 32 12 17 - - -
22/07:00pm - - - - - NNE 20 32 11 17 - - -
22/06:30pm - - - - - NNE 20 33 11 18 - - -
22/06:00pm - - - - - NNE 22 32 12 17 - - -
22/05:30pm - - - - - NNE 22 37 12 20 - - -
22/05:00pm - - - - - NE 20 32 11 17 - - -
22/04:30pm - - - - - NNE 24 35 13 19 - - -
22/04:00pm - - - - - NE 20 32 11 17 - - -
22/03:30pm - - - - - NE 20 32 11 17 - - -
22/03:00pm - - - - - NE 22 35 12 19 - - -
22/02:30pm - - - - - NE 22 33 12 18 - - -
22/02:00pm - - - - - NE 19 28 10 15 - - -
22/01:30pm - - - - - NE 20 35 11 19 - - -
22/01:00pm - - - - - NE 19 30 10 16 - - -
22/12:30pm - - - - - NE 20 30 11 16 - - -
22/12:00pm - - - - - NE 19 32 10 17 - - -
22/11:30am - - - - - NNE 15 24 8 13 - - -
22/11:00am - - - - - NNE 15 24 8 13 - - -
22/10:30am - - - - - NNE 17 24 9 13 - - -
22/10:00am - - - - - NNE 15 22 8 12 - - -
22/09:30am - - - - - N 13 19 7 10 - - -
22/09:00am - - - - - N 13 20 7 11 - - -
22/08:30am - - - - - N 9 17 5 9 - - -
22/08:00am - - - - - N 9 17 5 9 - - -
22/07:30am - - - - - N 9 13 5 7 - - -
22/07:00am - - - - - N 9 11 5 6 - - -
22/06:30am - - - - - N 9 11 5 6 - - -
22/06:00am - - - - - N 7 11 4 6 - - -
22/05:30am - - - - - N 7 11 4 6 - - -
22/05:00am - - - - - N 9 13 5 7 - - -
22/04:30am - - - - - N 9 13 5 7 - - -
22/04:00am - - - - - NNE 9 17 5 9 - - -
22/03:30am - - - - - N 13 19 7 10 - - -
22/03:00am - - - - - N 13 19 7 10 - - -
22/02:30am - - - - - N 15 24 8 13 - - -
22/02:00am - - - - - NNE 17 28 9 15 - - -
22/01:30am - - - - - NNE 17 24 9 13 - - -
22/01:00am - - - - - NNE 17 28 9 15 - - -
22/12:30am - - - - - NNE 17 26 9 14 - - -
22/12:00am - - - - - NNE 17 26 9 14 - - -
 
Date/Time
EDT
Temp
°C
App
Temp
°C
Dew
Point
°C
Rel
Hum
%
Delta-T
°C
Wind Press
QNH
hPa
Press
MSL
hPa
Rain since
9am
mm
Dir  Spd
km/h
Gust
km/h
Spd
kts
Gust
kts
21/11:30pm - - - - - NNE 19 30 10 16 - - -
21/11:00pm - - - - - NNE 17 24 9 13 - - -
21/10:30pm - - - - - NNE 19 30 10 16 - - -
21/10:00pm - - - - - NNE 19 28 10 15 - - -
21/09:30pm - - - - - NNE 19 30 10 16 - - -
21/09:00pm - - - - - NNE 17 26 9 14 - - -
21/08:30pm - - - - - NNE 19 28 10 15 - - -
21/08:00pm - - - - - NNE 15 24 8 13 - - -
21/07:30pm - - - - - NE 17 28 9 15 - - -
21/07:00pm - - - - - NE 15 26 8 14 - - -
21/06:30pm - - - - - NE 15 22 8 12 - - -
21/06:00pm - - - - - NE 15 22 8 12 - - -
21/05:30pm - - - - - ENE 13 19 7 10 - - -
21/05:00pm - - - - - ENE 11 17 6 9 - - -
21/04:30pm - - - - - ESE 15 22 8 12 - - -
21/04:00pm - - - - - ESE 17 20 9 11 - - -
21/03:30pm - - - - - ESE 17 22 9 12 - - -
21/03:00pm - - - - - ESE 15 19 8 10 - - -
21/02:30pm - - - - - ESE 15 20 8 11 - - -
21/02:00pm - - - - - SSE 13 17 7 9 - - -
21/01:30pm - - - - - SSE 15 19 8 10 - - -
21/01:00pm - - - - - SSE 13 19 7 10 - - -
21/12:30pm - - - - - SSE 15 20 8 11 - - -
21/12:00pm - - - - - SSE 15 22 8 12 - - -
21/11:30am - - - - - S 15 20 8 11 - - -
21/11:00am - - - - - S 15 20 8 11 - - -
21/10:30am - - - - - SW 9 11 5 6 - - -
21/10:00am - - - - - SW 9 13 5 7 - - -
21/09:30am - - - - - WSW 9 13 5 7 - - -
21/09:00am - - - - - W 11 13 6 7 - - -
21/08:30am - - - - - W 11 15 6 8 - - -
21/08:00am - - - - - W 11 15 6 8 - - -
21/07:30am - - - - - W 11 17 6 9 - - -
21/07:00am - - - - - W 11 15 6 8 - - -
21/06:30am - - - - - W 13 15 7 8 - - -
21/06:00am - - - - - W 13 15 7 8 - - -
21/05:30am - - - - - W 11 15 6 8 - - -
21/05:00am - - - - - W 11 15 6 8 - - -
21/04:30am - - - - - W 11 13 6 7 - - -
21/04:00am - - - - - WSW 9 11 5 6 - - -
21/03:30am - - - - - W 11 13 6 7 - - -
21/03:00am - - - - - WSW 6 11 3 6 - - -
21/02:30am - - - - - W 7 9 4 5 - - -
21/02:00am - - - - - W 9 11 5 6 - - -
21/01:30am - - - - - WNW 7 9 4 5 - - -
21/01:00am - - - - - NNW 9 11 5 6 - - -
21/12:30am - - - - - N 9 13 5 7 - - -
21/12:00am - - - - - N 11 15 6 8 - - -
 
Date/Time
EDT
Temp
°C
App
Temp
°C
Dew
Point
°C
Rel
Hum
%
Delta-T
°C
Wind Press
QNH
hPa
Press
MSL
hPa
Rain since
9am
mm
Dir  Spd
km/h
Gust
km/h
Spd
kts
Gust
kts
20/11:30pm - - - - - N 9 13 5 7 - - -
20/11:00pm - - - - - N 9 11 5 6 - - -
20/10:30pm - - - - - N 11 13 6 7 - - -
20/10:00pm - - - - - N 9 11 5 6 - - -
20/09:30pm - - - - - NE 9 15 5 8 - - -
20/09:00pm - - - - - NE 11 15 6 8 - - -
20/08:30pm - - - - - ENE 7 13 4 7 - - -
20/08:00pm - - - - - ENE 7 15 4 8 - - -
20/07:30pm - - - - - ENE 11 15 6 8 - - -
20/07:00pm - - - - - E 11 19 6 10 - - -
20/06:30pm - - - - - E 11 17 6 9 - - -
20/06:00pm - - - - - E 11 22 6 12 - - -
20/05:30pm - - - - - E 15 24 8 13 - - -
20/05:00pm - - - - - E 13 19 7 10 - - -
20/04:30pm - - - - - E 11 17 6 9 - - -
20/04:00pm - - - - - ENE 15 22 8 12 - - -
20/03:30pm - - - - - ENE 15 22 8 12 - - -
20/03:00pm - - - - - WSW 13 20 7 11 - - -
20/02:30pm - - - - - SW 13 22 7 12 - - -
20/02:00pm - - - - - W 17 32 9 17 - - -
20/01:30pm - - - - - W 15 26 8 14 - - -
20/01:00pm - - - - - WNW 17 24 9 13 - - -
20/12:30pm - - - - - WSW 17 32 9 17 - - -
20/12:00pm - - - - - W 20 30 11 16 - - -
20/11:30am - - - - - W 24 39 13 21 - - -

Other Formats:

Comma delimited format used in spreadsheet applications
http://www.bom.gov.au/fwo/IDN60801/IDN60801.95768.axf

JavaScript Object Notation format (JSON) in row-major order
http://www.bom.gov.au/fwo/IDN60801/IDN60801.95768.json